createdAt,value
2018-03-26T00:01:24.213Z,87.24
2018-03-26T00:03:51.748Z,87.08
2018-03-26T00:06:19.336Z,87.03
2018-03-26T00:08:47.067Z,86.26
2018-03-26T00:11:14.771Z,86.79
2018-03-26T00:13:42.634Z,87.98
2018-03-26T00:16:10.365Z,88.73
2018-03-26T00:18:38.199Z,89.26
2018-03-26T00:21:05.928Z,89.78
2018-03-26T00:23:33.590Z,89.20
2018-03-26T00:26:01.588Z,89.69
2018-03-26T00:28:29.889Z,89.93
2018-03-26T00:30:57.662Z,89.62
2018-03-26T00:33:25.413Z,90.12
2018-03-26T00:35:53.627Z,89.51
2018-03-26T00:38:21.177Z,89.09
2018-03-26T00:40:49.108Z,87.92
2018-03-26T00:43:17.048Z,85.39
2018-03-26T00:45:44.859Z,87.87
2018-03-26T00:48:12.608Z,87.44
2018-03-26T00:50:40.368Z,87.72
2018-03-26T00:53:08.232Z,88.50
2018-03-26T00:55:35.923Z,89.05
2018-03-26T00:58:03.903Z,89.82
2018-03-26T01:00:31.864Z,90.38
2018-03-26T01:02:59.648Z,90.21
2018-03-26T01:05:27.204Z,90.56
2018-03-26T01:07:55.282Z,90.37
2018-03-26T01:10:23.097Z,89.02
2018-03-26T01:12:50.724Z,89.09
2018-03-26T01:15:18.798Z,89.98
2018-03-26T01:17:46.408Z,90.74
2018-03-26T01:20:14.007Z,91.04
2018-03-26T01:22:42.178Z,91.13
2018-03-26T01:25:09.908Z,91.35
2018-03-26T01:27:37.489Z,91.23
2018-03-26T01:30:05.433Z,89.63
2018-03-26T01:32:33.248Z,87.85
2018-03-26T01:35:01.054Z,87.97
2018-03-26T01:37:28.767Z,88.70
2018-03-26T01:39:56.939Z,87.78
2018-03-26T01:42:24.844Z,86.74
2018-03-26T01:44:53.289Z,89.07
2018-03-26T01:47:21.183Z,90.12
2018-03-26T01:49:48.744Z,89.33
2018-03-26T01:52:17.818Z,89.81
2018-03-26T01:54:45.482Z,90.08
2018-03-26T01:57:13.469Z,90.65
2018-03-26T01:59:41.831Z,89.95
2018-03-26T02:02:10.478Z,90.67
2018-03-26T02:04:38.039Z,91.16
2018-03-26T02:07:06.087Z,90.54
2018-03-26T02:09:34.134Z,90.16
2018-03-26T02:12:02.019Z,89.17
2018-03-26T02:14:29.852Z,89.64
2018-03-26T02:16:57.543Z,89.20
2018-03-26T02:19:25.479Z,88.99
2018-03-26T02:21:53.567Z,89.13
2018-03-26T02:24:21.513Z,88.34
2018-03-26T02:26:49.326Z,89.71
2018-03-26T02:29:17.074Z,90.62
2018-03-26T02:31:44.763Z,91.34
2018-03-26T02:34:12.830Z,91.79
2018-03-26T02:36:40.602Z,91.01
2018-03-26T02:39:08.137Z,90.44
2018-03-26T02:41:35.894Z,90.85
2018-03-26T02:44:03.506Z,89.16
2018-03-26T02:46:31.265Z,89.46
2018-03-26T02:48:59.064Z,89.75
2018-03-26T02:51:27.305Z,89.62
2018-03-26T02:53:55.184Z,90.05
2018-03-26T02:56:22.815Z,89.97
2018-03-26T02:58:50.645Z,91.26
2018-03-26T03:01:18.455Z,89.87
2018-03-26T03:03:46.152Z,89.52
2018-03-26T03:06:14.065Z,89.20
2018-03-26T03:08:41.793Z,89.84
2018-03-26T03:11:09.484Z,91.43
2018-03-26T03:13:37.162Z,91.53
2018-03-26T03:16:05.009Z,90.91
2018-03-26T03:18:32.804Z,90.49
2018-03-26T03:21:00.627Z,91.78
2018-03-26T03:23:28.517Z,92.11
2018-03-26T03:25:56.433Z,91.84
2018-03-26T03:28:24.162Z,91.27
2018-03-26T03:30:51.960Z,89.70
2018-03-26T03:33:19.728Z,91.07
2018-03-26T03:35:47.444Z,91.19
2018-03-26T03:38:15.014Z,89.87
2018-03-26T03:40:42.953Z,89.33
2018-03-26T03:43:10.533Z,88.33
2018-03-26T03:45:38.974Z,91.03
2018-03-26T03:48:06.542Z,91.57
2018-03-26T03:50:35.143Z,91.83
2018-03-26T03:53:03.364Z,91.57
2018-03-26T03:55:32.228Z,91.31
2018-03-26T03:57:59.956Z,92.07
2018-03-26T04:00:27.909Z,92.30
2018-03-26T04:02:56.317Z,91.73
2018-03-26T04:05:24.054Z,91.95
2018-03-26T04:07:52.422Z,91.81
2018-03-26T04:10:20.934Z,90.56
2018-03-26T04:12:48.768Z,90.43
2018-03-26T04:15:16.503Z,90.61
2018-03-26T04:17:44.634Z,90.91
2018-03-26T04:20:12.193Z,91.10
2018-03-26T04:22:40.265Z,90.85
2018-03-26T04:25:08.152Z,90.43
2018-03-26T04:27:35.964Z,88.87
2018-03-26T04:30:04.149Z,88.88
2018-03-26T04:32:32.164Z,88.84
2018-03-26T04:35:00.127Z,89.40
2018-03-26T04:37:27.702Z,87.89
2018-03-26T04:39:55.682Z,88.92
2018-03-26T04:42:23.363Z,89.79
2018-03-26T04:44:51.132Z,90.00
2018-03-26T04:47:18.848Z,89.88
2018-03-26T04:49:46.905Z,88.53
2018-03-26T04:52:14.507Z,87.60
2018-03-26T04:54:42.468Z,89.13
2018-03-26T04:57:10.494Z,91.02
2018-03-26T04:59:39.062Z,91.16
2018-03-26T05:02:06.608Z,90.52
2018-03-26T05:04:34.414Z,89.71
2018-03-26T05:07:02.160Z,89.95
2018-03-26T05:09:29.959Z,89.31
2018-03-26T05:11:57.626Z,88.67
2018-03-26T05:14:25.298Z,88.39
2018-03-26T05:16:52.951Z,89.21
2018-03-26T05:19:20.762Z,89.21
2018-03-26T05:21:48.513Z,88.84
2018-03-26T05:24:16.607Z,87.96
2018-03-26T05:26:44.941Z,87.43
2018-03-26T05:29:12.478Z,87.40
2018-03-26T05:31:40.483Z,86.52
2018-03-26T05:34:08.629Z,86.20
2018-03-26T05:36:36.438Z,86.18
2018-03-26T05:39:04.359Z,87.55
2018-03-26T05:41:32.289Z,87.95
2018-03-26T05:44:00.163Z,88.01
2018-03-26T05:46:27.832Z,86.62
2018-03-26T05:48:55.804Z,86.90
2018-03-26T05:51:23.421Z,86.77
2018-03-26T05:53:51.028Z,88.70
2018-03-26T05:56:18.802Z,89.61
2018-03-26T05:58:46.841Z,88.82
2018-03-26T06:01:14.822Z,89.19
2018-03-26T06:03:42.700Z,88.12
2018-03-26T06:06:10.532Z,87.34
2018-03-26T06:08:38.703Z,89.63
2018-03-26T06:11:06.408Z,90.25
2018-03-26T06:13:34.503Z,90.45
2018-03-26T06:16:02.802Z,88.86
2018-03-26T06:18:30.783Z,87.88
2018-03-26T06:20:58.594Z,89.01
2018-03-26T06:23:26.155Z,88.79
2018-03-26T06:25:54.088Z,88.08
2018-03-26T06:28:21.836Z,86.66
2018-03-26T06:30:49.594Z,86.36
2018-03-26T06:33:17.816Z,86.20
2018-03-26T06:35:46.088Z,86.01
2018-03-26T06:38:33.512Z,85.09
2018-03-26T06:41:02.508Z,84.78
2018-03-26T06:43:30.357Z,84.89
2018-03-26T06:45:58.097Z,86.08
2018-03-26T06:48:25.903Z,87.40
2018-03-26T06:50:54.518Z,86.83
2018-03-26T06:53:22.262Z,89.53
2018-03-26T06:55:49.977Z,88.86
2018-03-26T06:58:17.846Z,89.10
2018-03-26T07:00:45.414Z,88.48
2018-03-26T07:03:13.331Z,86.68
2018-03-26T07:05:41.043Z,86.15
2018-03-26T07:08:09.773Z,85.42
2018-03-26T07:10:37.400Z,83.05
2018-03-26T07:13:05.142Z,82.76
2018-03-26T07:15:32.913Z,82.01
2018-03-26T07:18:00.647Z,81.46
2018-03-26T07:20:28.637Z,80.64
2018-03-26T07:22:56.168Z,80.12
2018-03-26T07:25:23.755Z,80.12
2018-03-26T07:27:51.742Z,78.78
2018-03-26T07:30:19.373Z,78.06
2018-03-26T07:32:47.202Z,77.60
2018-03-26T07:35:14.916Z,78.01
2018-03-26T07:37:43.009Z,77.54
2018-03-26T07:40:11.047Z,77.43
2018-03-26T07:42:38.946Z,77.33
2018-03-26T07:45:06.697Z,77.14
2018-03-26T07:47:34.444Z,75.04
2018-03-26T07:50:03.313Z,74.51
2018-03-26T07:52:31.208Z,75.69
2018-03-26T07:54:59.852Z,76.31
2018-03-26T07:57:28.538Z,76.25
2018-03-26T07:59:56.252Z,74.57
2018-03-26T08:02:23.962Z,73.83
2018-03-26T08:04:51.607Z,73.58
2018-03-26T08:07:19.878Z,73.14
2018-03-26T08:09:47.728Z,71.53
2018-03-26T08:12:15.860Z,70.61
2018-03-26T08:14:43.701Z,71.43
2018-03-26T08:17:11.626Z,69.48
2018-03-26T08:19:39.499Z,69.40
2018-03-26T08:22:07.187Z,69.29
2018-03-26T08:24:35.498Z,68.54
2018-03-26T08:27:03.085Z,67.29
2018-03-26T08:29:30.805Z,66.47
2018-03-26T08:31:58.427Z,66.15
2018-03-26T08:34:26.533Z,62.80
2018-03-26T08:36:54.354Z,61.56
2018-03-26T08:39:22.250Z,58.88
2018-03-26T08:41:49.925Z,57.73
2018-03-26T08:44:17.754Z,56.78
2018-03-26T08:46:45.986Z,57.46
2018-03-26T08:49:14.052Z,56.79
2018-03-26T08:51:41.860Z,55.63
2018-03-26T08:54:09.668Z,56.79
2018-03-26T08:56:37.329Z,57.22
2018-03-26T08:59:05.083Z,54.96
2018-03-26T09:01:33.407Z,54.46
2018-03-26T09:04:01.339Z,54.01
2018-03-26T09:06:29.389Z,54.91
2018-03-26T09:08:56.952Z,52.00
2018-03-26T09:11:25.183Z,50.86
2018-03-26T09:13:52.869Z,53.19
2018-03-26T09:16:20.627Z,53.85
2018-03-26T09:18:48.395Z,51.46
2018-03-26T09:21:16.489Z,51.20
2018-03-26T09:23:44.443Z,49.67
2018-03-26T09:26:12.547Z,47.72
2018-03-26T09:28:40.774Z,50.17
2018-03-26T09:31:08.409Z,54.42
2018-03-26T09:33:35.983Z,55.78
2018-03-26T09:36:04.142Z,50.76
2018-03-26T09:38:31.944Z,48.55
2018-03-26T09:40:59.752Z,47.71
2018-03-26T09:43:27.694Z,44.82
2018-03-26T09:45:56.262Z,46.00
2018-03-26T09:48:23.932Z,45.00
2018-03-26T09:50:52.108Z,44.32
2018-03-26T09:53:20.456Z,47.97
2018-03-26T09:55:48.747Z,49.04
2018-03-26T09:58:16.438Z,50.63
2018-03-26T10:00:48.968Z,51.49
2018-03-26T10:03:16.654Z,50.58
2018-03-26T10:05:44.823Z,49.03
2018-03-26T10:08:13.253Z,47.65
2018-03-26T10:10:41.790Z,47.02
2018-03-26T10:13:10.012Z,46.49
2018-03-26T10:15:38.993Z,45.49
2018-03-26T10:18:06.806Z,46.22
2018-03-26T10:20:34.414Z,50.32
2018-03-26T10:23:02.329Z,53.46
2018-03-26T10:25:30.778Z,52.13
2018-03-26T10:27:58.414Z,51.55
2018-03-26T10:30:26.047Z,49.27
2018-03-26T10:32:53.728Z,48.98
2018-03-26T10:35:21.558Z,50.17
2018-03-26T10:37:49.501Z,51.69
2018-03-26T10:40:17.472Z,54.90
2018-03-26T10:42:45.383Z,52.09
2018-03-26T10:45:13.099Z,50.69
2018-03-26T10:47:40.807Z,50.79
2018-03-26T10:50:08.602Z,49.58
2018-03-26T10:52:36.411Z,52.43
2018-03-26T10:55:04.116Z,50.36
2018-03-26T10:57:31.676Z,48.09
2018-03-26T10:59:59.434Z,50.78
2018-03-26T11:02:27.118Z,49.44
2018-03-26T11:04:54.817Z,49.23
2018-03-26T11:07:23.566Z,50.09
2018-03-26T11:09:51.156Z,50.27
2018-03-26T11:12:18.951Z,51.75
2018-03-26T11:14:46.608Z,51.05
2018-03-26T11:17:14.381Z,52.21
2018-03-26T11:19:42.259Z,51.65
2018-03-26T11:22:15.463Z,51.18
2018-03-26T11:24:44.081Z,52.17
2018-03-26T11:27:12.828Z,50.04
2018-03-26T11:29:40.843Z,50.04
2018-03-26T11:32:09.374Z,49.42
2018-03-26T11:34:37.173Z,50.45
2018-03-26T11:37:04.911Z,50.05
2018-03-26T11:39:32.867Z,48.48
2018-03-26T11:42:00.728Z,48.39
2018-03-26T11:44:28.601Z,47.54
2018-03-26T11:46:56.764Z,48.90
2018-03-26T11:49:24.751Z,49.38
2018-03-26T11:51:52.726Z,48.74
2018-03-26T11:54:20.687Z,50.56
2018-03-26T11:56:48.262Z,47.84
2018-03-26T11:59:16.448Z,48.56
2018-03-26T12:01:44.446Z,48.33
2018-03-26T12:04:12.162Z,49.75
2018-03-26T12:06:40.256Z,47.96
2018-03-26T12:09:08.556Z,46.21
2018-03-26T12:11:38.904Z,45.24
2018-03-26T12:14:06.912Z,43.77
2018-03-26T12:16:34.748Z,44.12
2018-03-26T12:19:02.322Z,43.94
2018-03-26T12:21:30.053Z,45.35
2018-03-26T12:24:09.827Z,45.06
2018-03-26T12:26:37.558Z,46.61
2018-03-26T12:29:17.121Z,46.59
2018-03-26T12:31:44.941Z,46.92
2018-03-26T12:34:24.814Z,44.93
2018-03-26T12:36:52.672Z,44.23
2018-03-26T12:39:20.257Z,43.48
2018-03-26T12:41:48.012Z,43.28
2018-03-26T12:44:27.773Z,43.48
2018-03-26T12:46:56.083Z,42.70
2018-03-26T12:49:23.816Z,42.41
2018-03-26T12:54:53.838Z,39.24
2018-03-26T12:57:33.258Z,39.03
2018-03-26T13:00:01.143Z,40.00
2018-03-26T13:02:28.828Z,40.26
2018-03-26T13:04:56.747Z,38.71
2018-03-26T13:07:24.652Z,38.71
2018-03-26T13:09:52.813Z,38.34
2018-03-26T13:12:20.869Z,38.84
2018-03-26T13:14:48.977Z,36.60
2018-03-26T13:17:16.621Z,37.38
2018-03-26T13:19:44.392Z,37.75
2018-03-26T13:22:13.046Z,37.56
2018-03-26T13:24:41.402Z,36.29
2018-03-26T13:27:09.203Z,35.95
2018-03-26T13:29:37.129Z,36.47
2018-03-26T13:32:05.119Z,33.86
2018-03-26T13:34:32.847Z,35.69
2018-03-26T13:37:00.752Z,35.54
2018-03-26T13:39:28.452Z,35.45
2018-03-26T13:41:56.537Z,35.82
2018-03-26T13:44:24.414Z,36.90
2018-03-26T13:46:52.398Z,37.43
2018-03-26T13:49:20.436Z,40.79
2018-03-26T13:51:48.327Z,41.78
2018-03-26T13:54:16.918Z,43.91
2018-03-26T13:56:44.626Z,45.83
2018-03-26T13:59:12.430Z,46.83
2018-03-26T14:01:40.161Z,49.23
2018-03-26T14:04:07.926Z,47.57
2018-03-26T14:06:35.501Z,46.39
2018-03-26T14:09:15.088Z,44.01
2018-03-26T14:11:54.881Z,44.58
2018-03-26T14:14:34.611Z,43.26
2018-03-26T14:17:14.494Z,45.64
2018-03-26T14:19:42.262Z,46.17
2018-03-26T14:22:09.838Z,46.74
2018-03-26T14:24:37.493Z,46.06
2018-03-26T14:27:05.391Z,45.18
2018-03-26T14:29:33.210Z,46.09
2018-03-26T14:32:01.032Z,45.98
2018-03-26T14:34:28.772Z,46.54
2018-03-26T14:36:56.592Z,46.93
2018-03-26T14:39:24.522Z,46.90
2018-03-26T14:41:52.365Z,47.83
2018-03-26T14:44:20.105Z,48.35
2018-03-26T14:46:47.813Z,47.63
2018-03-26T14:49:15.533Z,48.07
2018-03-26T14:51:43.456Z,48.90
2018-03-26T14:54:11.779Z,49.41
2018-03-26T14:56:40.518Z,50.64
2018-03-26T14:59:08.362Z,50.09
2018-03-26T15:01:36.353Z,49.78
2018-03-26T15:04:04.573Z,50.61
2018-03-26T15:06:32.307Z,50.59
2018-03-26T15:09:00.183Z,52.13
2018-03-26T15:11:28.031Z,53.39
2018-03-26T15:13:55.970Z,53.43
2018-03-26T15:16:23.737Z,53.17
2018-03-26T15:18:51.499Z,52.90
2018-03-26T15:21:19.153Z,53.44
2018-03-26T15:23:47.047Z,54.02
2018-03-26T15:26:14.688Z,53.15
2018-03-26T15:28:42.463Z,53.73
2018-03-26T15:31:10.357Z,53.55
2018-03-26T15:33:38.852Z,53.78
2018-03-26T15:36:06.672Z,54.27
2018-03-26T15:38:34.282Z,54.04
2018-03-26T15:41:02.400Z,54.64
2018-03-26T15:43:30.229Z,54.99
2018-03-26T15:45:57.937Z,55.70
2018-03-26T15:48:25.491Z,56.17
2018-03-26T15:50:53.272Z,56.01
2018-03-26T15:53:20.971Z,56.14
2018-03-26T15:55:48.740Z,55.11
2018-03-26T15:58:16.680Z,55.09
2018-03-26T16:00:44.301Z,55.45
2018-03-26T16:03:17.836Z,55.82
2018-03-26T16:05:45.552Z,55.51
2018-03-26T16:08:13.837Z,55.47
2018-03-26T16:10:41.552Z,56.63
2018-03-26T16:13:09.298Z,56.22
2018-03-26T16:15:36.945Z,54.86
2018-03-26T16:18:04.898Z,54.22
2018-03-26T16:20:33.977Z,54.63
2018-03-26T16:23:01.872Z,55.98
2018-03-26T16:25:29.973Z,56.99
2018-03-26T16:27:57.638Z,56.21
2018-03-26T16:30:25.507Z,54.75
2018-03-26T16:32:53.408Z,55.79
2018-03-26T16:35:26.757Z,53.17
2018-03-26T16:37:54.767Z,53.07
2018-03-26T16:40:22.541Z,53.48
2018-03-26T16:42:54.616Z,55.36
2018-03-26T16:45:22.552Z,56.44
2018-03-26T16:47:51.423Z,57.57
2018-03-26T16:50:19.297Z,57.92
2018-03-26T16:52:46.858Z,57.87
2018-03-26T16:55:14.602Z,56.58
2018-03-26T16:57:42.338Z,56.18
2018-03-26T17:00:09.966Z,56.19
2018-03-26T17:02:37.612Z,57.07
2018-03-26T17:05:05.354Z,56.54
2018-03-26T17:07:33.155Z,58.35
2018-03-26T17:10:01.233Z,57.95
2018-03-26T17:12:29.207Z,59.49
2018-03-26T17:14:57.296Z,60.24
2018-03-26T17:17:25.108Z,61.60
2018-03-26T17:19:52.761Z,61.72
2018-03-26T17:22:20.921Z,62.04
2018-03-26T17:24:48.768Z,62.88
2018-03-26T17:27:16.838Z,63.00
2018-03-26T17:29:44.720Z,64.27
2018-03-26T17:32:12.536Z,64.36
2018-03-26T17:34:40.294Z,64.31
2018-03-26T17:37:08.066Z,65.05
2018-03-26T17:39:36.011Z,66.37
2018-03-26T17:42:04.361Z,67.17
2018-03-26T17:44:32.096Z,66.58
2018-03-26T17:47:00.115Z,67.65
2018-03-26T17:49:28.066Z,68.55
2018-03-26T17:51:55.658Z,68.91
2018-03-26T17:54:23.537Z,69.38
2018-03-26T17:56:51.981Z,69.26
2018-03-26T17:59:19.714Z,68.01
2018-03-26T18:01:47.276Z,68.47
2018-03-26T18:04:15.767Z,69.04
2018-03-26T18:06:43.461Z,68.71
2018-03-26T18:09:11.278Z,67.05
2018-03-26T18:11:38.873Z,67.16
2018-03-26T18:14:06.624Z,68.49
2018-03-26T18:16:34.487Z,68.80
2018-03-26T18:19:02.066Z,71.30
2018-03-26T18:21:29.836Z,70.82
2018-03-26T18:23:57.422Z,70.62
2018-03-26T18:26:26.647Z,71.20
2018-03-26T18:28:54.448Z,72.84
2018-03-26T18:31:22.509Z,72.91
2018-03-26T18:33:50.302Z,73.00
2018-03-26T18:36:17.996Z,73.04
2018-03-26T18:38:45.786Z,74.87
2018-03-26T18:41:13.677Z,73.49
2018-03-26T18:43:41.367Z,73.23
2018-03-26T18:46:09.111Z,73.24
2018-03-26T18:48:36.885Z,73.46
2018-03-26T18:51:04.443Z,72.58
2018-03-26T18:53:32.167Z,75.50
2018-03-26T18:56:00.088Z,74.93
2018-03-26T18:58:28.015Z,74.75
2018-03-26T19:00:55.946Z,74.99
2018-03-26T19:03:23.724Z,75.22
2018-03-26T19:05:51.671Z,78.36
2018-03-26T19:08:19.633Z,79.46
2018-03-26T19:10:47.801Z,77.42
2018-03-26T19:13:15.636Z,75.76
2018-03-26T19:15:43.404Z,76.54
2018-03-26T19:18:12.286Z,76.48
2018-03-26T19:20:40.152Z,76.20
2018-03-26T19:23:08.051Z,75.96
2018-03-26T19:25:35.632Z,75.06
2018-03-26T19:28:03.287Z,75.90
2018-03-26T19:30:31.488Z,75.66
2018-03-26T19:32:59.512Z,76.07
2018-03-26T19:35:27.498Z,76.94
2018-03-26T19:37:55.623Z,78.16
2018-03-26T19:40:23.716Z,78.41
2018-03-26T19:42:51.892Z,80.77
2018-03-26T19:45:20.842Z,80.88
2018-03-26T19:47:48.641Z,79.57
2018-03-26T19:50:16.299Z,80.85
2018-03-26T19:52:44.755Z,79.23
2018-03-26T19:55:12.361Z,77.38
2018-03-26T19:57:40.387Z,76.46
2018-03-26T20:00:08.347Z,77.21
2018-03-26T20:02:36.035Z,77.87
2018-03-26T20:05:03.888Z,77.50
2018-03-26T20:07:31.677Z,77.35
2018-03-26T20:09:59.507Z,78.98
2018-03-26T20:12:27.884Z,78.84
2018-03-26T20:14:56.577Z,78.92
2018-03-26T20:17:24.296Z,79.80
2018-03-26T20:19:52.006Z,79.13
2018-03-26T20:22:20.693Z,78.18
2018-03-26T20:24:48.538Z,77.85
2018-03-26T20:27:16.187Z,76.98
2018-03-26T20:29:43.903Z,79.84
2018-03-26T20:32:11.801Z,81.64
2018-03-26T20:34:39.588Z,81.08
2018-03-26T20:37:08.328Z,79.98
2018-03-26T20:39:36.042Z,78.27
2018-03-26T20:42:03.869Z,77.55
2018-03-26T20:44:31.745Z,77.49
2018-03-26T20:47:00.406Z,79.46
2018-03-26T20:49:27.972Z,78.53
2018-03-26T20:51:55.696Z,78.97
2018-03-26T20:54:23.416Z,77.57
2018-03-26T20:56:51.745Z,78.11
2018-03-26T20:59:19.503Z,77.49
2018-03-26T21:01:47.230Z,78.13
2018-03-26T21:04:15.017Z,79.33
2018-03-26T21:06:42.664Z,79.41
2018-03-26T21:09:10.621Z,78.84
2018-03-26T21:11:38.387Z,79.85
2018-03-26T21:14:06.402Z,81.38
2018-03-26T21:16:34.370Z,80.53
2018-03-26T21:19:02.123Z,78.85
2018-03-26T21:21:29.691Z,77.88
2018-03-26T21:23:57.394Z,78.09
2018-03-26T21:26:25.927Z,77.92
2018-03-26T21:28:53.578Z,78.85
2018-03-26T21:31:21.203Z,79.47
2018-03-26T21:33:49.219Z,80.53
2018-03-26T21:36:16.972Z,81.31
2018-03-26T21:38:44.737Z,81.84
2018-03-26T21:41:12.415Z,82.53
2018-03-26T21:43:40.138Z,82.00
2018-03-26T21:46:07.908Z,81.77
2018-03-26T21:48:36.181Z,81.72
2018-03-26T21:51:03.849Z,81.76
2018-03-26T21:53:31.556Z,81.45
2018-03-26T21:55:59.275Z,81.40
2018-03-26T21:58:27.193Z,81.23
2018-03-26T22:00:54.928Z,80.85
2018-03-26T22:03:22.657Z,81.22
2018-03-26T22:05:50.552Z,82.06
2018-03-26T22:08:18.308Z,82.62
2018-03-26T22:10:46.281Z,81.97
2018-03-26T22:13:14.017Z,81.67
2018-03-26T22:15:41.607Z,82.02
2018-03-26T22:18:09.213Z,82.72
2018-03-26T22:20:37.035Z,83.05
2018-03-26T22:23:04.645Z,82.19
2018-03-26T22:25:32.571Z,82.32
2018-03-26T22:28:00.377Z,82.43
2018-03-26T22:30:28.208Z,82.27
2018-03-26T22:32:55.970Z,81.97
2018-03-26T22:35:23.672Z,82.44
2018-03-26T22:37:51.643Z,81.80
2018-03-26T22:40:19.538Z,82.68
2018-03-26T22:42:47.221Z,82.87
2018-03-26T22:45:15.261Z,81.99
2018-03-26T22:47:42.893Z,81.60
2018-03-26T22:50:10.886Z,81.21
2018-03-26T22:52:38.437Z,81.95
2018-03-26T22:55:06.164Z,82.76
2018-03-26T22:57:34.127Z,82.73
2018-03-26T23:00:01.833Z,83.64
2018-03-26T23:02:29.703Z,83.86
2018-03-26T23:04:57.632Z,84.07
2018-03-26T23:07:25.403Z,84.41
2018-03-26T23:09:53.136Z,83.31
2018-03-26T23:12:20.817Z,84.19
2018-03-26T23:14:49.832Z,84.73
2018-03-26T23:17:17.757Z,83.99
2018-03-26T23:19:45.677Z,83.44
2018-03-26T23:22:13.392Z,85.33
2018-03-26T23:24:41.372Z,85.89
2018-03-26T23:27:09.388Z,85.74
2018-03-26T23:29:37.080Z,86.27
2018-03-26T23:32:04.750Z,87.65
2018-03-26T23:34:32.566Z,88.03
2018-03-26T23:37:01.035Z,87.17
2018-03-26T23:39:28.696Z,86.83
2018-03-26T23:41:56.373Z,86.96
2018-03-26T23:44:24.813Z,86.41
2018-03-26T23:46:52.444Z,86.87
2018-03-26T23:49:20.252Z,87.07
2018-03-26T23:51:47.940Z,88.23
2018-03-26T23:54:15.951Z,88.86
2018-03-26T23:56:43.832Z,86.65
2018-03-26T23:59:11.731Z,88.84
